Estación Meteorológica Peña el Pijo (Robertgarden) [ 12/09/19 16:37:50 CET ]

Fecha Hora Presion(HPa) Temp (°C) Humedad % Rocio (°C) Viento ( m/s) Direccion Lluvia 1Hora(mm) Lluvia 24H(mm) LLuvia Total(mm)
2019-Sep-22 01:01:45 1007.600 15.8 89 14.0       3.10 489.74
2019-Sep-22 02:01:47 1007.700 15.4 90 13.8       3.10 489.74
2019-Sep-22 03:01:49 1007.700 14.9 90 13.3       3.10 489.74
2019-Sep-22 04:01:45 1006.500 14.9 90 13.3       3.10 489.74
2019-Sep-22 05:02:02 1007.000 14.8 90 13.2       3.10 489.74
2019-Sep-22 06:01:52 1007.000 14.1 91 12.7       3.10 489.74
2019-Sep-22 07:01:50 1007.100 12.9 91 11.5       3.10 489.74
2019-Sep-22 08:01:50 1007.300 12.6 90 11.0       3.10 489.74
2019-Sep-22 09:01:41 1007.600 12.3 91 10.9       3.10 489.74
2019-Sep-22 10:01:57 1007.800 17.3 90 15.7       3.10 489.74
2019-Sep-22 11:01:40 1008.100 20.5 74 15.7     0.51 3.62 490.25
2019-Sep-22 12:01:41 1008.200 23.3 59 14.8       3.62 490.25
2019-Sep-22 13:01:43 1008.200 25.6 53 15.3       3.10 490.25
2019-Sep-22 14:01:39 1007.900 26.1 52 15.5       1.03 490.25
2019-Sep-22 15:01:35 1007.900 24.5 54 14.6       0.51 490.25
2019-Sep-22 16:01:53 1008.000 25.1 52 14.5       0.51 490.25
2019-Sep-22 17:01:45 1008.100 24.9 47 12.8       0.51 490.25
2019-Sep-22 18:01:39 1008.100 23.1 51 12.4       0.51 490.25
2019-Sep-22 19:01:44 1008.500 21.9 56 12.7 0.5 N   0.51 490.25
2019-Sep-22 20:01:43 1008.900 19.1 61 11.4       0.51 490.25
2019-Sep-22 21:01:46 1009.600 16.5 69 10.8       0.51 490.25
2019-Sep-22 22:02:01 1010.200 15.6 74 11.0       0.51 490.25
2019-Sep-22 23:01:54 1010.600 13.8 79 10.2       0.51 490.25

Temperatura Máxima:26°    Temperatura Mínima:12°
Presión Máxima:1010.600 Hpa    Presión Mínima:1006.500 Hpa


Volver